Time;durP1;ratioP1;P1;durP2;ratioP2;P2;SDS_P1;SDS_P2;PMS_P1;PMS_P2;Temp;Humidity;BMP_temperature;BMP_pressure;BME280_temperature;BME280_humidity;BME280_pressure;Samples;Min_cycle;Max_cycle;Signal;HPM_P1;HPM_P2
2022/04/16 00:02:19;;;;;;;8.43;5.78;;;;;;;13.11;52.67;102957.16;5149225;27;20110;-65
2022/04/16 00:04:47;;;;;;;8.82;5.50;;;;;;;13.03;52.74;102953.53;5136350;27;20039;-65
2022/04/16 00:07:14;;;;;;;7.78;5.30;;;;;;;13.06;53.05;102960.41;5134264;27;20107;-65
2022/04/16 00:09:44;;;;;;;9.55;6.18;;;;;;;13.03;53.06;102950.81;5143331;27;20055;-65
2022/04/16 00:12:11;;;;;;;7.97;5.63;;;;;;;13.02;52.91;102951.00;5144400;27;20089;-65
2022/04/16 00:14:39;;;;;;;8.60;5.60;;;;;;;12.99;52.86;102954.09;5138251;27;20128;-65
2022/04/16 00:17:07;;;;;;;9.55;5.88;;;;;;;12.99;52.96;102960.31;5138646;27;20086;-65
2022/04/16 00:19:36;;;;;;;8.57;5.93;;;;;;;12.98;52.98;102952.41;5141672;27;20078;-65
2022/04/16 00:22:07;;;;;;;11.30;5.85;;;;;;;12.98;53.28;102960.50;5144626;27;20047;-65
2022/04/16 00:24:36;;;;;;;9.85;6.20;;;;;;;12.97;52.90;102958.84;5145345;27;20039;-65
2022/04/16 00:27:07;;;;;;;9.32;6.05;;;;;;;12.96;53.26;102958.00;5135832;27;20043;-65
2022/04/16 00:29:35;;;;;;;12.38;6.20;;;;;;;12.94;53.17;102951.09;5139561;27;20074;-65
2022/04/16 00:32:04;;;;;;;8.23;6.07;;;;;;;12.94;53.25;102956.50;5139341;27;20379;-66
2022/04/16 00:34:32;;;;;;;8.63;6.03;;;;;;;12.90;53.02;102947.94;5141982;27;20050;-65
2022/04/16 00:37:00;;;;;;;9.73;6.38;;;;;;;12.92;53.07;102954.00;5133994;27;20079;-65
2022/04/16 00:39:28;;;;;;;9.73;6.80;;;;;;;12.92;53.26;102958.56;5140997;27;20126;-64
2022/04/16 00:41:56;;;;;;;9.00;6.55;;;;;;;12.90;53.04;102958.75;5135056;27;20075;-65
2022/04/16 00:44:25;;;;;;;8.85;5.88;;;;;;;12.88;53.15;102959.94;5147079;27;20084;-65
2022/04/16 00:46:53;;;;;;;9.23;6.40;;;;;;;12.88;53.39;102960.78;5149531;27;20086;-65
2022/04/16 00:49:21;;;;;;;11.75;7.05;;;;;;;12.86;53.11;102956.59;5142448;27;20039;-65
2022/04/16 00:51:50;;;;;;;9.63;6.45;;;;;;;12.85;53.16;102963.84;5143279;27;20106;-65
2022/04/16 00:54:19;;;;;;;9.60;6.68;;;;;;;12.84;53.45;102964.88;5132043;27;20039;-65
2022/04/16 00:56:47;;;;;;;9.35;6.60;;;;;;;12.82;53.27;102964.22;5141955;28;20085;-65
2022/04/16 00:59:15;;;;;;;8.40;6.10;;;;;;;12.81;53.47;102962.53;5151757;27;20491;-65
2022/04/16 01:01:44;;;;;;;8.10;6.05;;;;;;;12.80;53.42;102949.25;5152518;27;20039;-65
2022/04/16 01:04:12;;;;;;;14.80;7.25;;;;;;;12.80;53.08;102957.34;5139999;27;20047;-65
2022/04/16 01:06:42;;;;;;;10.82;6.78;;;;;;;12.77;53.42;102958.53;5141772;28;20051;-65
2022/04/16 01:09:09;;;;;;;10.40;7.50;;;;;;;12.76;53.18;102956.03;5150116;27;20102;-66
2022/04/16 01:11:39;;;;;;;8.77;6.93;;;;;;;12.75;53.18;102960.59;5146423;27;20081;-65
2022/04/16 01:14:06;;;;;;;12.68;7.75;;;;;;;12.73;53.32;102969.88;5145263;27;20062;-67
2022/04/16 01:16:34;;;;;;;9.32;6.88;;;;;;;12.59;53.25;102952.66;5147447;27;20079;-65
2022/04/16 01:19:04;;;;;;;9.63;6.63;;;;;;;12.68;53.38;102968.59;5137252;27;20086;-65
2022/04/16 01:21:33;;;;;;;12.55;7.20;;;;;;;12.67;53.33;102976.84;5147850;27;20539;-65
2022/04/16 01:24:02;;;;;;;8.23;6.78;;;;;;;12.61;53.38;102956.84;5132371;27;20043;-66
2022/04/16 01:26:30;;;;;;;10.05;8.02;;;;;;;12.64;53.28;102972.66;5147236;27;20078;-66
2022/04/16 01:28:58;;;;;;;10.25;6.60;;;;;;;12.63;53.44;102980.94;5134677;27;20075;-65
2022/04/16 01:31:26;;;;;;;11.02;7.57;;;;;;;12.61;53.71;102975.72;5143829;27;20573;-65
2022/04/16 01:33:54;;;;;;;11.23;8.55;;;;;;;12.56;53.30;102971.91;5146559;27;20047;-65
2022/04/16 01:36:21;;;;;;;10.50;7.40;;;;;;;12.58;53.61;102980.66;5138396;27;20043;-65
2022/04/16 01:38:49;;;;;;;11.32;7.32;;;;;;;12.57;53.80;102981.69;5148932;27;20083;-65
2022/04/16 01:41:18;;;;;;;13.30;7.78;;;;;;;12.57;53.49;102987.91;5145404;27;20043;-65
2022/04/16 01:43:46;;;;;;;14.50;7.75;;;;;;;12.55;53.77;102983.72;5148423;27;20046;-65
2022/04/16 01:46:13;;;;;;;11.30;8.10;;;;;;;12.49;53.56;102979.06;5147670;27;20138;-66
2022/04/16 01:48:41;;;;;;;10.77;7.70;;;;;;;12.51;53.72;102983.25;5150716;27;20039;-66
2022/04/16 01:51:10;;;;;;;14.18;7.82;;;;;;;12.50;53.65;102984.25;5134815;27;20047;-66
2022/04/16 01:53:38;;;;;;;11.38;8.20;;;;;;;12.50;53.86;102988.81;5140060;27;20130;-65
2022/04/16 01:56:05;;;;;;;10.30;7.90;;;;;;;12.49;53.67;102989.84;5153057;27;20122;-66
2022/04/16 01:58:38;;;;;;;9.38;7.80;;;;;;;12.48;53.74;102980.06;5157473;27;20512;-66
2022/04/16 02:01:06;;;;;;;12.50;8.68;;;;;;;12.45;54.01;102978.56;5148847;27;20432;-66
2022/04/16 02:03:34;;;;;;;11.75;8.02;;;;;;;12.46;53.88;102982.94;5142494;27;20375;-65
2022/04/16 02:06:02;;;;;;;10.98;7.72;;;;;;;12.46;54.06;102980.25;5150125;27;20071;-66
2022/04/16 02:08:29;;;;;;;9.60;7.53;;;;;;;12.44;53.80;102978.75;5148565;27;20082;-66
2022/04/16 02:10:57;;;;;;;15.07;9.32;;;;;;;12.45;54.10;102980.44;5154356;27;20082;-66
2022/04/16 02:13:25;;;;;;;10.88;7.43;;;;;;;12.44;53.85;102984.16;5143768;27;20054;-66
2022/04/16 02:15:54;;;;;;;13.82;7.72;;;;;;;12.43;54.01;102982.47;5154204;27;20047;-65
2022/04/16 02:18:23;;;;;;;12.15;7.68;;;;;;;12.42;53.97;102980.78;5143943;27;20072;-65
2022/04/16 02:20:51;;;;;;;10.27;7.53;;;;;;;12.41;54.05;102982.66;5145820;27;20089;-66
2022/04/16 02:23:19;;;;;;;9.93;7.55;;;;;;;12.38;54.22;102991.09;5158109;27;20499;-66
2022/04/16 02:25:46;;;;;;;11.90;7.65;;;;;;;12.38;54.07;102985.72;5150284;27;20130;-66
2022/04/16 02:28:14;;;;;;;15.55;8.60;;;;;;;12.35;54.36;102984.22;5150965;27;20095;-66
2022/04/16 02:30:42;;;;;;;10.98;8.00;;;;;;;12.35;54.14;102986.91;5144286;27;20070;-66
2022/04/16 02:33:12;;;;;;;14.63;7.50;;;;;;;12.34;54.28;102981.69;5150109;27;20050;-66
2022/04/16 02:35:40;;;;;;;12.02;8.55;;;;;;;12.34;54.13;102992.50;5140480;27;20074;-66
2022/04/16 02:38:08;;;;;;;12.70;7.63;;;;;;;12.31;54.21;102991.00;5141635;27;20054;-66
2022/04/16 02:40:36;;;;;;;13.57;8.25;;;;;;;12.30;54.38;102994.72;5144197;27;20419;-66
2022/04/16 02:43:04;;;;;;;9.55;6.82;;;;;;;12.31;54.17;102992.84;5147089;27;20150;-66
2022/04/16 02:48:18;;;;;;;9.73;7.60;;;;;;;12.26;54.41;102989.84;5153455;27;20051;-66
2022/04/16 02:50:46;;;;;;;14.00;8.20;;;;;;;12.26;54.42;102997.94;5134365;27;20535;-66
2022/04/16 02:53:14;;;;;;;13.30;8.98;;;;;;;12.24;54.24;102997.28;5145252;27;20047;-66
2022/04/16 02:55:46;;;;;;;12.98;8.75;;;;;;;12.21;54.67;102993.09;5156194;27;20074;-67
2022/04/16 02:58:14;;;;;;;12.68;7.93;;;;;;;12.20;54.49;102987.88;5136847;27;20075;-65
2022/04/16 03:00:42;;;;;;;12.13;7.65;;;;;;;12.18;54.58;102996.16;5159815;27;20460;-64
2022/04/16 03:03:09;;;;;;;11.65;8.23;;;;;;;12.18;54.61;103000.72;5148603;27;20051;-66
2022/04/16 03:05:39;;;;;;;18.92;9.50;;;;;;;12.11;54.64;102989.84;5152073;27;20043;-64
2022/04/16 03:08:12;;;;;;;13.13;8.23;;;;;;;12.15;54.55;103007.28;5148131;27;20067;-65
2022/04/16 03:10:41;;;;;;;13.00;9.23;;;;;;;12.15;54.71;103009.16;5144674;27;20432;-65
2022/04/16 03:13:09;;;;;;;11.13;7.90;;;;;;;12.13;54.67;103005.81;5138382;27;20048;-65
2022/04/16 03:18:22;;;;;;;12.75;8.70;;;;;;;12.09;54.89;103016.13;5148740;27;20055;-65
2022/04/16 03:20:51;;;;;;;13.82;9.07;;;;;;;12.08;54.82;103013.63;5152865;27;20078;-65
2022/04/16 03:23:18;;;;;;;13.45;8.15;;;;;;;12.06;54.72;103024.56;5133308;27;20086;-65
2022/04/16 03:25:48;;;;;;;11.68;8.52;;;;;;;12.04;54.71;103013.13;5146566;27;20067;-65
2022/04/16 03:28:16;;;;;;;13.32;8.30;;;;;;;12.05;54.78;103009.41;5141736;27;20039;-65
2022/04/16 03:30:44;;;;;;;15.00;8.90;;;;;;;12.04;54.89;103019.34;5149272;27;20390;-65
2022/04/16 03:33:12;;;;;;;11.25;8.02;;;;;;;12.04;54.88;103013.13;5140308;27;20051;-65
2022/04/16 03:35:40;;;;;;;13.55;8.95;;;;;;;12.04;54.95;103015.81;5147315;27;20043;-65
2022/04/16 03:38:10;;;;;;;13.25;9.20;;;;;;;12.02;54.92;103017.84;5143179;27;20448;-65
2022/04/16 03:40:38;;;;;;;13.00;8.68;;;;;;;12.01;54.77;103016.19;5140488;27;20058;-65
2022/04/16 03:43:06;;;;;;;11.25;8.52;;;;;;;12.00;54.92;103015.34;5141670;27;20099;-66
2022/04/16 03:45:35;;;;;;;13.18;8.75;;;;;;;11.99;54.86;103015.53;5145475;27;20079;-65
2022/04/16 03:48:04;;;;;;;16.13;8.77;;;;;;;11.99;54.73;103019.06;5145444;27;20115;-65
2022/04/16 03:50:33;;;;;;;11.27;8.35;;;;;;;11.98;54.75;103011.16;5139834;27;20070;-65
2022/04/16 03:53:01;;;;;;;12.57;8.50;;;;;;;11.84;55.03;102993.03;5146987;27;20118;-65
2022/04/16 04:01:06;;;;;;;12.50;9.02;;;;;;;11.94;55.13;103015.22;5145408;27;20039;-66
2022/04/16 04:03:33;;;;;;;12.52;9.13;;;;;;;11.92;54.98;103014.56;5149108;27;20070;-66
2022/04/16 04:06:02;;;;;;;13.00;8.95;;;;;;;11.90;54.96;103013.88;5148295;27;20077;-67
2022/04/16 04:08:31;;;;;;;13.68;8.73;;;;;;;11.87;55.02;103015.09;5141504;27;20047;-67
2022/04/16 04:11:00;;;;;;;16.33;10.13;;;;;;;11.87;55.08;103025.03;5147023;27;20051;-66
2022/04/16 04:13:27;;;;;;;13.07;9.93;;;;;;;11.86;54.98;103021.50;5140610;27;20479;-66
2022/04/16 04:15:55;;;;;;;14.82;9.80;;;;;;;11.74;54.86;103001.31;5142821;27;20070;-66
2022/04/16 04:18:24;;;;;;;14.23;8.98;;;;;;;11.83;55.03;103021.00;5137754;27;20426;-66
2022/04/16 04:20:52;;;;;;;11.43;8.43;;;;;;;11.82;54.97;103028.25;5139171;27;20063;-66
2022/04/16 04:23:20;;;;;;;13.55;9.25;;;;;;;11.81;55.12;103034.66;5153861;27;20077;-66
2022/04/16 04:25:49;;;;;;;11.23;9.38;;;;;;;11.79;55.00;103043.94;5141101;27;20085;-67
2022/04/16 04:28:18;;;;;;;14.15;9.98;;;;;;;11.77;55.11;103032.44;5139637;27;20034;-66
2022/04/16 04:30:46;;;;;;;14.15;9.95;;;;;;;11.77;54.98;103040.53;5136802;27;20070;-66
2022/04/16 04:33:13;;;;;;;12.68;9.45;;;;;;;11.66;55.10;103028.28;5144844;27;20063;-66
2022/04/16 04:35:41;;;;;;;14.13;10.43;;;;;;;11.74;55.29;103049.81;5141240;27;20050;-66
2022/04/16 04:38:09;;;;;;;16.85;9.93;;;;;;;11.72;55.24;103051.84;5137600;27;20073;-66
2022/04/16 04:40:37;;;;;;;13.23;9.85;;;;;;;11.72;55.32;103057.22;5135715;27;20152;-66
2022/04/16 04:43:05;;;;;;;13.50;9.45;;;;;;;11.71;55.33;103052.84;5140012;27;20085;-65
2022/04/16 04:45:34;;;;;;;13.13;10.20;;;;;;;11.70;55.07;103065.47;5140648;27;20078;-65
2022/04/16 04:48:02;;;;;;;14.35;9.30;;;;;;;11.68;55.20;103054.03;5140434;27;20071;-66
2022/04/16 04:50:29;;;;;;;15.43;9.45;;;;;;;11.69;55.22;103071.03;5139976;27;20105;-66
2022/04/16 04:52:57;;;;;;;15.80;10.77;;;;;;;11.66;55.28;103064.16;5145025;27;20054;-65
2022/04/16 04:55:25;;;;;;;13.73;9.80;;;;;;;11.65;55.40;103069.72;5149574;27;20082;-66
2022/04/16 04:57:54;;;;;;;13.77;9.90;;;;;;;11.63;55.15;103063.66;5140629;28;20050;-65
2022/04/16 05:00:22;;;;;;;13.60;9.20;;;;;;;11.63;55.32;103069.88;5143084;27;20047;-67
2022/04/16 05:02:51;;;;;;;13.80;9.77;;;;;;;11.65;55.14;103077.78;5141923;27;20050;-65
2022/04/16 05:05:19;;;;;;;14.68;9.95;;;;;;;11.63;55.24;103072.59;5139578;27;20395;-66
2022/04/16 05:07:47;;;;;;;13.73;9.98;;;;;;;11.63;55.26;103075.28;5148369;27;20081;-66
2022/04/16 05:10:15;;;;;;;12.48;9.50;;;;;;;11.65;55.33;103077.78;5144066;27;20086;-65
2022/04/16 05:12:43;;;;;;;13.25;9.48;;;;;;;11.62;55.20;103073.59;5142034;27;20113;-66
2022/04/16 05:15:10;;;;;;;14.63;10.35;;;;;;;11.63;55.26;103082.50;5145895;27;20103;-66
2022/04/16 05:17:40;;;;;;;15.57;10.35;;;;;;;11.62;55.28;103080.84;5151669;27;20054;-65
2022/04/16 05:20:10;;;;;;;15.40;10.48;;;;;;;11.59;55.14;103079.34;5156299;27;20054;-65
2022/04/16 05:22:38;;;;;;;14.45;10.48;;;;;;;11.61;55.56;103082.69;4781621;27;10000084;-67
2022/04/16 05:25:07;;;;;;;14.18;10.15;;;;;;;11.62;55.22;103088.91;5136980;27;20078;-67
2022/04/16 05:27:35;;;;;;;17.83;10.93;;;;;;;11.59;55.37;103082.03;5139309;27;20481;-66
2022/04/16 05:30:11;;;;;;;14.18;10.40;;;;;;;11.61;55.27;103090.78;5127915;27;20075;-66
2022/04/16 05:32:40;;;;;;;14.30;10.52;;;;;;;11.56;55.23;103085.06;5140042;27;20100;-67
2022/04/16 05:35:11;;;;;;;15.15;10.85;;;;;;;11.58;55.70;103079.50;5140191;27;20085;-67
2022/04/16 05:37:40;;;;;;;16.80;11.13;;;;;;;11.59;55.38;103091.97;5137706;27;20038;-67
2022/04/16 05:40:10;;;;;;;16.63;10.93;;;;;;;11.58;55.56;103090.28;5141680;27;20119;-67
2022/04/16 05:42:41;;;;;;;15.50;10.13;;;;;;;11.58;55.31;103087.59;5143918;27;20074;-67
2022/04/16 05:45:10;;;;;;;15.63;10.43;;;;;;;11.57;55.64;103093.97;5136036;27;20062;-67
2022/04/16 05:47:38;;;;;;;17.38;11.50;;;;;;;11.55;55.63;103093.31;5143642;27;20344;-67
2022/04/16 05:50:06;;;;;;;15.90;12.20;;;;;;;11.55;55.66;103098.69;5132077;27;20206;-63
2022/04/16 05:52:36;;;;;;;15.68;10.73;;;;;;;11.54;55.63;103100.56;5144385;27;20106;-68
2022/04/16 05:55:04;;;;;;;13.48;11.02;;;;;;;11.52;55.79;103102.59;5132632;27;20076;-67
2022/04/16 05:57:32;;;;;;;17.20;11.63;;;;;;;11.52;55.79;103107.13;5129265;27;20134;-66
2022/04/16 06:00:00;;;;;;;14.98;10.80;;;;;;;11.43;55.75;103087.47;5126643;27;20114;-67
2022/04/16 06:02:28;;;;;;;15.23;11.55;;;;;;;11.52;55.88;103102.59;5124689;27;20123;-67
2022/04/16 06:04:56;;;;;;;13.35;10.90;;;;;;;11.54;55.84;103115.88;5126174;27;20048;-67
2022/04/16 06:07:24;;;;;;;21.67;12.55;;;;;;;11.55;56.21;103122.94;5132473;27;20044;-67
2022/04/16 06:09:53;;;;;;;17.60;11.30;;;;;;;11.58;56.10;103128.81;5140908;27;20042;-65
2022/04/16 06:12:22;;;;;;;14.00;10.95;;;;;;;11.60;56.01;103129.50;5147684;27;20146;-62
2022/04/16 06:14:51;;;;;;;17.60;11.75;;;;;;;11.62;56.05;103138.25;5136143;27;20074;-63
2022/04/16 06:17:19;;;;;;;23.02;13.65;;;;;;;11.59;56.89;103129.66;5126894;27;20649;-64
2022/04/16 06:19:46;;;;;;;21.38;14.20;;;;;;;11.55;56.88;103126.47;5137535;27;20043;-65
2022/04/16 06:22:20;;;;;;;16.42;12.20;;;;;;;11.56;56.98;103130.00;5131785;27;20086;-61
2022/04/16 06:24:48;;;;;;;21.70;13.60;;;;;;;11.60;56.57;103134.03;5140717;27;20103;-62
2022/04/16 06:27:17;;;;;;;18.17;12.38;;;;;;;11.65;56.48;103137.88;5134520;27;20417;-63
2022/04/16 06:29:45;;;;;;;18.52;13.30;;;;;;;11.53;56.48;103115.03;5135742;27;20059;-62
2022/04/16 06:32:13;;;;;;;21.08;13.48;;;;;;;11.68;56.54;103137.53;5135061;27;20093;-62
2022/04/16 06:34:41;;;;;;;19.35;13.52;;;;;;;11.69;56.56;103141.09;5132934;27;20047;-64
2022/04/16 06:37:09;;;;;;;20.17;12.82;;;;;;;11.70;56.59;103142.75;5139129;27;20268;-63
2022/04/16 06:39:37;;;;;;;22.00;13.68;;;;;;;11.73;56.66;103147.81;5133667;27;20139;-61
2022/04/16 06:42:05;;;;;;;17.67;12.98;;;;;;;11.74;56.52;103144.09;5142320;27;20064;-63
2022/04/16 06:44:34;;;;;;;18.05;12.52;;;;;;;11.76;56.50;103152.00;5127562;27;20048;-64
2022/04/16 06:47:02;;;;;;;18.70;11.93;;;;;;;11.78;56.57;103139.22;5137272;27;20114;-63
2022/04/16 06:49:30;;;;;;;17.35;12.57;;;;;;;11.80;56.61;103142.59;5140701;27;20047;-63
2022/04/16 06:51:57;;;;;;;14.75;11.48;;;;;;;11.80;56.70;103143.44;5130023;27;20071;-63
2022/04/16 06:54:25;;;;;;;18.05;12.07;;;;;;;11.85;56.81;103145.59;5136524;27;20570;-63
2022/04/16 06:56:53;;;;;;;16.67;11.65;;;;;;;11.87;56.70;103149.81;5133054;27;20454;-62
2022/04/16 06:59:20;;;;;;;16.10;11.02;;;;;;;11.89;56.68;103145.09;5127277;27;20460;-62
2022/04/16 07:01:49;;;;;;;18.38;12.32;;;;;;;11.91;56.68;103153.84;5140939;27;20051;-62
2022/04/16 07:04:17;;;;;;;15.43;11.48;;;;;;;11.84;56.83;103125.06;5125210;27;20055;-63
2022/04/16 07:06:45;;;;;;;16.08;11.38;;;;;;;11.99;56.77;103150.28;5140932;27;20127;-62
2022/04/16 07:09:13;;;;;;;15.52;11.27;;;;;;;12.02;56.69;103147.22;5136592;27;20090;-62
2022/04/16 07:11:40;;;;;;;18.58;12.00;;;;;;;12.04;56.85;103148.72;5136479;27;20047;-63
2022/04/16 07:14:08;;;;;;;14.13;10.75;;;;;;;12.07;56.68;103144.00;5123790;27;20090;-63
2022/04/16 07:16:36;;;;;;;16.48;11.77;;;;;;;12.10;56.87;103147.19;5134265;27;20047;-64
2022/04/16 07:19:06;;;;;;;14.95;11.57;;;;;;;12.12;56.82;103147.84;5134841;27;20252;-63
2022/04/16 07:21:34;;;;;;;17.83;11.82;;;;;;;12.13;56.81;103146.84;5128791;27;20078;-62
2022/04/16 07:24:02;;;;;;;19.35;9.85;;;;;;;12.15;56.80;103150.16;5129368;27;20166;-63
2022/04/16 07:26:29;;;;;;;19.50;11.73;;;;;;;12.17;56.58;103158.06;5137387;27;20046;-64
2022/04/16 07:28:57;;;;;;;15.15;11.68;;;;;;;12.17;56.81;103153.53;5132617;27;20047;-64
2022/04/16 07:31:25;;;;;;;16.88;11.10;;;;;;;12.18;57.06;103151.66;5139821;27;20525;-63
2022/04/16 07:33:53;;;;;;;19.65;13.00;;;;;;;12.22;57.01;103150.31;5131971;27;20043;-64
2022/04/16 07:36:22;;;;;;;14.43;10.52;;;;;;;12.22;56.87;103145.75;5136735;27;20455;-63
2022/04/16 07:38:50;;;;;;;14.65;10.88;;;;;;;12.23;56.90;103152.81;5134472;27;20380;-63
2022/04/16 07:41:17;;;;;;;15.30;11.18;;;;;;;12.25;57.06;103158.88;5137627;27;20073;-66
2022/04/16 07:43:45;;;;;;;16.85;11.05;;;;;;;12.27;57.06;103159.53;5127962;27;20396;-63
2022/04/16 07:46:15;;;;;;;15.48;11.27;;;;;;;12.28;57.26;103161.22;5138369;27;20473;-63
2022/04/16 07:48:42;;;;;;;18.20;11.55;;;;;;;12.33;56.88;103163.38;5128149;27;20054;-62
2022/04/16 07:51:10;;;;;;;19.73;14.52;;;;;;;12.32;58.00;103161.72;5135604;27;20062;-70
2022/04/16 07:53:39;;;;;;;22.10;14.50;;;;;;;12.24;58.27;103157.19;5140424;27;20067;-65
2022/04/16 07:56:07;;;;;;;31.45;14.63;;;;;;;12.24;58.54;103153.66;5131348;27;20062;-62
2022/04/16 07:58:34;;;;;;;17.58;13.07;;;;;;;12.25;58.45;103155.34;5138201;27;20067;-63
2022/04/16 08:01:02;;;;;;;21.65;13.05;;;;;;;12.31;58.16;103160.88;5136402;27;20117;-64
2022/04/16 08:03:30;;;;;;;20.98;13.10;;;;;;;12.37;58.03;103151.22;5127217;27;21596;-63
2022/04/16 08:05:58;;;;;;;17.75;13.45;;;;;;;12.40;58.06;103156.25;5128457;27;20043;-61
2022/04/16 08:08:25;;;;;;;20.63;13.35;;;;;;;12.44;58.21;103159.44;5132735;27;20039;-63
2022/04/16 08:10:54;;;;;;;19.85;13.23;;;;;;;12.45;58.54;103159.28;5128609;27;20158;-62
2022/04/16 08:13:22;;;;;;;18.85;12.98;;;;;;;12.48;58.69;103155.38;5129690;27;20674;-64
2022/04/16 08:15:50;;;;;;;26.25;13.57;;;;;;;12.51;58.39;103160.41;5133897;27;20056;-64
2022/04/16 08:18:18;;;;;;;18.48;12.02;;;;;;;12.51;58.18;103155.03;5123389;27;20061;-64
2022/04/16 08:20:46;;;;;;;17.65;12.68;;;;;;;12.51;58.47;103157.72;5123981;27;20119;-64
2022/04/16 08:23:14;;;;;;;19.45;12.45;;;;;;;12.55;58.28;103159.03;5125321;27;20075;-64
2022/04/16 08:25:45;;;;;;;17.50;12.70;;;;;;;12.56;58.14;103163.41;5117983;27;20484;-64
2022/04/16 08:28:14;;;;;;;16.13;11.65;;;;;;;12.57;58.36;103159.72;5131416;27;20484;-64
2022/04/16 08:30:42;;;;;;;18.35;11.80;;;;;;;12.60;58.37;103168.28;5125630;27;20091;-63
2022/04/16 08:33:17;;;;;;;15.63;11.40;;;;;;;12.61;58.17;103166.44;5135728;27;20448;-64
2022/04/16 08:35:46;;;;;;;15.00;10.52;;;;;;;12.60;57.94;103165.59;5128636;27;20158;-64
2022/04/16 08:38:14;;;;;;;15.18;10.35;;;;;;;12.62;58.13;103171.63;5131768;27;20104;-64
2022/04/16 08:40:42;;;;;;;13.82;10.75;;;;;;;12.60;57.98;103160.19;5133535;27;20070;-63
2022/04/16 08:43:15;;;;;;;16.05;11.10;;;;;;;12.64;58.19;103171.47;5130486;27;20110;-63
2022/04/16 08:45:43;;;;;;;16.58;9.75;;;;;;;12.64;58.32;103164.22;5124976;27;20062;-63
2022/04/16 08:48:14;;;;;;;16.33;10.27;;;;;;;12.66;58.09;103172.13;5124820;27;20082;-63
2022/04/16 08:50:43;;;;;;;13.98;9.95;;;;;;;12.68;58.35;103168.22;5131565;27;20057;-62
2022/04/16 08:53:11;;;;;;;13.63;9.50;;;;;;;12.69;57.86;103172.59;5126730;27;20125;-63
2022/04/16 08:55:39;;;;;;;15.23;10.65;;;;;;;12.72;58.04;103176.81;5136284;27;20051;-62
2022/04/16 08:58:07;;;;;;;12.70;8.95;;;;;;;12.74;57.84;103171.22;5139874;27;20055;-63
2022/04/16 09:00:36;;;;;;;15.40;9.35;;;;;;;12.75;57.82;103171.06;5137662;27;20111;-63
2022/04/16 09:03:06;;;;;;;13.60;8.57;;;;;;;12.75;57.76;103168.34;5137671;28;20087;-61
2022/04/16 09:05:34;;;;;;;13.18;9.00;;;;;;;12.76;57.83;103164.63;5136594;27;20052;-63
2022/04/16 09:08:04;;;;;;;13.70;8.95;;;;;;;12.78;57.71;103161.75;5133796;27;20051;-62
2022/04/16 09:10:36;;;;;;;12.82;8.00;;;;;;;12.83;59.03;103165.59;5135345;27;20054;-63
2022/04/16 09:13:05;;;;;;;11.50;8.57;;;;;;;12.84;57.90;103153.78;5134604;27;20492;-63
2022/04/16 09:15:35;;;;;;;11.57;8.00;;;;;;;12.84;58.04;103159.19;5149786;27;20089;-63
2022/04/16 09:18:06;;;;;;;11.35;7.75;;;;;;;12.89;58.18;103159.47;5139624;27;20106;-63
2022/04/16 09:20:38;;;;;;;11.77;7.63;;;;;;;12.93;58.87;103162.66;5140272;27;20077;-64
2022/04/16 09:23:16;;;;;;;10.27;6.78;;;;;;;12.94;58.43;103153.53;5141687;27;20044;-64
2022/04/16 09:25:45;;;;;;;12.10;8.23;;;;;;;12.95;58.08;103166.00;5127165;27;20051;-62
2022/04/16 09:28:15;;;;;;;12.57;7.22;;;;;;;13.02;58.82;103161.56;5140226;27;20104;-62
2022/04/16 09:30:49;;;;;;;11.35;6.38;;;;;;;13.06;59.45;103152.09;5140099;27;20039;-60
2022/04/16 09:33:19;;;;;;;11.10;6.57;;;;;;;13.12;59.10;103155.91;5126086;27;20044;-60
2022/04/16 09:35:48;;;;;;;10.18;6.20;;;;;;;13.18;58.70;103158.75;5145372;27;20051;-61
2022/04/16 09:38:15;;;;;;;10.23;5.97;;;;;;;13.18;58.51;103149.81;5127183;27;20051;-60
2022/04/16 09:40:46;;;;;;;10.95;6.05;;;;;;;13.18;57.71;103147.97;5151034;27;20077;-60
2022/04/16 09:43:15;;;;;;;7.78;5.82;;;;;;;13.23;58.20;103145.56;5131478;27;20441;-60
2022/04/16 09:45:43;;;;;;;8.90;5.22;;;;;;;13.19;58.24;103143.41;5137535;27;20051;-60
2022/04/16 09:48:12;;;;;;;9.18;5.60;;;;;;;13.28;58.27;103150.41;5140450;27;20043;-60
2022/04/16 09:50:43;;;;;;;7.30;5.55;;;;;;;13.33;58.04;103158.78;5144908;27;20542;-59
2022/04/16 09:53:12;;;;;;;9.25;5.47;;;;;;;13.37;57.98;103143.06;5144375;27;20047;-59
2022/04/16 09:55:41;;;;;;;8.30;4.60;;;;;;;13.45;58.16;103143.81;5147742;27;20051;-59
2022/04/16 09:58:11;;;;;;;8.13;4.85;;;;;;;13.58;58.24;103153.97;5135348;27;20170;-59
2022/04/16 10:00:41;;;;;;;6.90;4.50;;;;;;;13.55;58.34;103148.94;5144770;27;20047;-60
2022/04/16 10:03:29;;;;;;;7.75;4.22;;;;;;;13.65;58.00;103146.81;5138618;27;20115;-60
2022/04/16 10:05:59;;;;;;;9.00;5.07;;;;;;;13.62;57.66;103145.31;5148208;27;20054;-60
2022/04/16 10:08:27;;;;;;;5.95;4.32;;;;;;;13.61;57.50;103145.50;5149045;27;20241;-60
2022/04/16 10:10:57;;;;;;;7.60;3.90;;;;;;;13.61;56.82;103145.50;5138386;27;20043;-60
2022/04/16 10:13:30;;;;;;;6.57;4.18;;;;;;;13.63;57.97;103138.88;5133636;27;20562;-60
2022/04/16 10:16:05;;;;;;;5.25;3.78;;;;;;;13.61;57.21;103134.69;5148568;27;20150;-61
2022/04/16 10:18:35;;;;;;;5.68;3.70;;;;;;;13.57;56.59;103125.28;5142600;27;20047;-61
2022/04/16 10:21:05;;;;;;;6.85;4.15;;;;;;;13.61;56.75;103130.13;5143697;27;20043;-64
2022/04/16 10:23:39;;;;;;;7.53;4.45;;;;;;;13.61;56.45;103135.53;5135819;27;20051;-61
2022/04/16 10:26:10;;;;;;;7.40;4.65;;;;;;;13.68;57.02;103125.66;5142429;27;20070;-60
2022/04/16 10:28:40;;;;;;;5.50;3.80;;;;;;;13.77;57.13;103136.38;5139138;27;20047;-59
2022/04/16 10:31:20;;;;;;;7.00;3.58;;;;;;;13.87;57.64;103135.03;5146402;27;20157;-60
2022/04/16 10:33:59;;;;;;;6.45;3.53;;;;;;;13.92;57.22;103126.34;5150478;27;20070;-60
2022/04/16 10:36:32;;;;;;;4.43;2.88;;;;;;;13.96;57.01;103133.91;5138991;27;20031;-62
2022/04/16 10:39:01;;;;;;;6.25;3.20;;;;;;;13.99;56.55;103138.09;5138938;27;20051;-63
2022/04/16 10:41:29;;;;;;;5.38;3.03;;;;;;;13.99;56.74;103122.72;5142347;27;20040;-63
2022/04/16 10:43:59;;;;;;;3.60;2.80;;;;;;;14.00;56.28;103129.78;5140539;27;20047;-62
2022/04/16 10:46:41;;;;;;;3.08;2.55;;;;;;;14.04;56.52;103132.13;5143239;27;20051;-63
2022/04/16 10:49:10;;;;;;;3.85;2.95;;;;;;;14.03;55.96;103131.28;5138423;27;20148;-62
2022/04/16 10:51:40;;;;;;;4.50;2.63;;;;;;;14.09;56.59;103135.94;5137973;27;20075;-63
2022/04/16 10:54:09;;;;;;;5.38;2.97;;;;;;;14.16;57.02;103133.31;5138735;27;20082;-61
2022/04/16 10:56:39;;;;;;;4.50;2.85;;;;;;;14.24;56.17;103135.91;5131338;27;20046;-61
2022/04/16 10:59:08;;;;;;;6.88;2.70;;;;;;;14.32;56.25;103136.63;5142049;27;20051;-61
2022/04/16 11:01:36;;;;;;;4.25;2.60;;;;;;;14.44;57.13;103119.94;5125561;27;20067;-60
2022/04/16 11:04:14;;;;;;;4.40;2.78;;;;;;;14.48;56.79;103119.34;5134118;27;20126;-61
2022/04/16 11:06:48;;;;;;;4.22;2.78;;;;;;;14.50;55.77;103120.00;5139959;27;20448;-61
2022/04/16 11:09:18;;;;;;;3.58;2.60;;;;;;;14.53;55.86;103129.59;5129316;27;20084;-61
2022/04/16 11:11:50;;;;;;;5.35;2.72;;;;;;;14.51;55.07;103121.69;5128790;27;20051;-61
2022/04/16 11:14:18;;;;;;;3.75;2.55;;;;;;;14.51;54.57;103127.09;5139247;27;20067;-61
2022/04/16 11:16:47;;;;;;;4.40;2.90;;;;;;;14.53;54.86;103125.03;5140004;27;20050;-61
2022/04/16 11:19:16;;;;;;;5.45;3.22;;;;;;;14.52;52.12;103122.50;4776925;27;9999835;-61
2022/04/16 11:21:46;;;;;;;5.07;2.85;;;;;;;14.46;52.75;103110.59;5123693;27;20110;-61
2022/04/16 11:24:15;;;;;;;5.00;3.03;;;;;;;14.52;53.44;103127.94;5131773;27;20127;-59
2022/04/16 11:34:58;;;;;;;4.60;2.90;;;;;;;14.57;52.03;103111.94;5143062;27;20384;-61
2022/04/16 11:37:32;;;;;;;4.65;2.78;;;;;;;14.61;51.17;103113.25;5137394;27;20081;-61
2022/04/16 11:40:01;;;;;;;5.40;3.45;;;;;;;14.60;49.48;103106.16;5138492;27;20078;-61
2022/04/16 11:42:30;;;;;;;7.13;3.22;;;;;;;14.56;49.75;103105.69;5139045;27;20081;-61
2022/04/16 11:44:58;;;;;;;5.53;2.78;;;;;;;14.63;50.26;103109.31;5133906;27;20088;-62